This is the latest recevied weather packets stored in our database for station/object WB5NHL-13. If no packets are shown the sender has not sent any weather packets the latest 10 day(s).
| Time | Temp. | Humidity | Pressure | Rain* | Wind** | Luminosity | Snow |
|---|---|---|---|---|---|---|---|
| 1777943724 | 18.89° C | 63% | 1014.8 hPa | 0 mm | - | - | - |
| 1777940720 | 21.11° C | 54% | 1014.3 hPa | 0 mm | - | - | - |
| 1777940123 | 21.67° C | 54% | 1014.3 hPa | 0 mm | - | - | - |
| 1777927531 | 27.22° C | 36% | 1014.4 hPa | 0 mm | - | - | - |
| 1777920926 | 27.78° C | 37% | 1015.7 hPa | 0 mm | - | - | - |
| 1777918560 | 26.67° C | 39% | 1015.9 hPa | 0 mm | - | - | - |
| 1777916132 | 26.11° C | 42% | 1016.5 hPa | 0 mm | - | - | - |
| 1777913130 | 23.33° C | 45% | 1017 hPa | 0 mm | - | - | - |
| 1777912531 | 22.78° C | 47% | 1017.1 hPa | 0 mm | - | - | - |
| 1777905350 | 19.44° C | 54% | 1017.8 hPa | 0 mm | - | - | - |
| 1777901729 | 14.44° C | 84% | 1018 hPa | 0 mm | - | - | - |
| 1777901153 | 14.44° C | 86% | 1018.1 hPa | 0 mm | - | - | - |
| 1777899324 | 12.22° C | 98% | 1018 hPa | 0 mm | - | - | - |
| 1777897551 | 11.11° C | 99% | 1017.9 hPa | 0 mm | - | - | - |
| 1777893931 | 10° C | 99% | 1017.7 hPa | 0 mm | - | - | - |
| 1777890330 | 10° C | 99% | 1017.4 hPa | 0 mm | - | - | - |
| 1777889733 | 10° C | 99% | 1017.5 hPa | 0 mm | - | - | - |
| 1777887923 | 10° C | 99% | 1017.3 hPa | 0 mm | - | - | - |
| 1777886717 | 10.56° C | 99% | 1017.5 hPa | 0 mm | - | - | - |
| 1777883128 | 11.11° C | 98% | 1017.4 hPa | 0 mm | - | - | - |
| 1777880145 | 11.67° C | 94% | 1017.1 hPa | 0 mm | - | - | - |
| 1777878951 | 11.67° C | 93% | 1017.3 hPa | 0 mm | - | - | - |
| 1777877122 | 11.67° C | 92% | 1017.7 hPa | 0 mm | - | - | - |
| 1777875318 | 11.67° C | 90% | 1017.8 hPa | 0 mm | - | - | - |
| 1777872924 | 11.67° C | 88% | 1017.7 hPa | 0 mm | - | - | - |
* Rain latest hour (hover to see other rain measurements)
** Current wind speed in m/s (hover to see current wind gust speed)